createdAt,value
2024-03-09T00:00:02.592Z,4.0
2024-03-09T00:05:02.906Z,4.0
2024-03-09T00:10:02.689Z,3.7
2024-03-09T00:15:03.360Z,3.7
2024-03-09T00:20:02.579Z,3.7
2024-03-09T00:25:02.908Z,3.7
2024-03-09T00:30:03.092Z,3.5
2024-03-09T00:35:02.610Z,3.5
2024-03-09T00:40:02.946Z,3.5
2024-03-09T00:45:02.286Z,3.5
2024-03-09T00:50:02.499Z,3.2
2024-03-09T00:55:02.739Z,3.2
2024-03-09T01:00:02.821Z,3.2
2024-03-09T01:05:02.461Z,3.2
2024-03-09T01:10:02.774Z,3.2
2024-03-09T01:15:03.112Z,3.2
2024-03-09T01:20:02.444Z,3.0
2024-03-09T01:25:02.898Z,3.0
2024-03-09T01:30:03.309Z,3.0
2024-03-09T01:35:02.693Z,3.0
2024-03-09T01:40:03.144Z,2.9
2024-03-09T01:45:02.293Z,2.9
2024-03-09T01:50:02.777Z,3.0
2024-03-09T01:55:03.065Z,3.0
2024-03-09T02:00:02.409Z,3.0
2024-03-09T02:05:02.566Z,3.0
2024-03-09T02:10:03.048Z,2.7
2024-03-09T02:15:02.355Z,2.7
2024-03-09T02:20:02.758Z,2.5
2024-03-09T02:25:03.283Z,2.5
2024-03-09T02:30:02.653Z,2.4
2024-03-09T02:35:03.287Z,2.4
2024-03-09T02:40:02.684Z,2.4
2024-03-09T02:45:02.916Z,2.4
2024-03-09T02:50:03.258Z,2.2
2024-03-09T02:55:02.576Z,2.2
2024-03-09T03:00:02.813Z,2.4
2024-03-09T03:05:03.151Z,2.4
2024-03-09T03:10:02.481Z,2.2
2024-03-09T03:15:02.973Z,2.2
2024-03-09T03:20:02.411Z,2.4
2024-03-09T03:25:02.937Z,2.4
2024-03-09T03:30:02.401Z,2.2
2024-03-09T03:35:02.858Z,2.2
2024-03-09T03:40:03.142Z,2.2
2024-03-09T03:45:02.548Z,2.2
2024-03-09T03:50:02.842Z,2.0
2024-03-09T03:55:03.117Z,2.0
2024-03-09T04:00:02.332Z,2.2
2024-03-09T04:05:02.655Z,2.2
2024-03-09T04:10:02.857Z,2.4
2024-03-09T04:15:03.166Z,2.4
2024-03-09T04:20:02.314Z,2.2
2024-03-09T04:25:07.269Z,2.2
2024-03-09T04:30:02.457Z,2.2
2024-03-09T04:35:02.822Z,2.2
2024-03-09T04:40:02.245Z,2.2
2024-03-09T04:45:02.568Z,2.2
2024-03-09T04:50:02.929Z,2.2
2024-03-09T04:55:02.210Z,2.2
2024-03-09T05:00:02.487Z,1.8
2024-03-09T05:05:02.765Z,1.8
2024-03-09T05:10:03.113Z,2.0
2024-03-09T05:15:02.399Z,2.0
2024-03-09T05:20:02.724Z,1.8
2024-03-09T05:25:03.062Z,1.8
2024-03-09T05:30:02.289Z,1.8
2024-03-09T05:35:02.494Z,1.8
2024-03-09T05:40:02.789Z,1.8
2024-03-09T05:45:03.021Z,1.8
2024-03-09T05:50:02.514Z,1.8
2024-03-09T05:55:02.979Z,1.8
2024-03-09T06:00:02.278Z,1.8
2024-03-09T06:05:02.722Z,1.8
2024-03-09T06:10:03.051Z,1.8
2024-03-09T06:15:02.347Z,1.8
2024-03-09T06:20:02.651Z,1.8
2024-03-09T06:25:02.945Z,1.8
2024-03-09T06:30:02.247Z,2.0
2024-03-09T06:35:02.621Z,2.0
2024-03-09T06:40:03.020Z,2.4
2024-03-09T06:45:02.327Z,2.4
2024-03-09T06:50:02.697Z,2.5
2024-03-09T06:55:03.098Z,2.5
2024-03-09T07:00:02.331Z,2.7
2024-03-09T07:05:02.580Z,2.7
2024-03-09T07:10:02.901Z,2.9
2024-03-09T07:15:03.331Z,2.9
2024-03-09T07:20:02.680Z,3.2
2024-03-09T07:25:03.223Z,3.2
2024-03-09T07:30:02.500Z,3.2
2024-03-09T07:35:02.846Z,3.2
2024-03-09T07:40:03.158Z,3.7
2024-03-09T07:45:02.490Z,3.7
2024-03-09T07:50:02.871Z,3.7
2024-03-09T07:55:03.229Z,3.7
2024-03-09T08:00:07.626Z,4.0
2024-03-09T08:05:03.693Z,4.0
2024-03-09T08:10:03.168Z,4.5
2024-03-09T08:15:02.670Z,4.5
2024-03-09T08:20:03.240Z,4.8
2024-03-09T08:25:03.014Z,4.8
2024-03-09T08:30:02.309Z,5.3
2024-03-09T08:35:02.646Z,5.3
2024-03-09T08:40:02.934Z,5.3
2024-03-09T08:45:02.686Z,5.3
2024-03-09T08:50:02.962Z,5.8
2024-03-09T08:55:02.279Z,6.0
2024-03-09T09:00:02.956Z,8.0
2024-03-09T09:05:02.330Z,8.0
2024-03-09T09:10:02.714Z,8.0
2024-03-09T09:15:03.659Z,8.5
2024-03-09T09:20:04.644Z,8.5
2024-03-09T09:25:03.059Z,8.5
2024-03-09T09:30:02.350Z,8.5
2024-03-09T09:35:02.588Z,8.5
2024-03-09T09:40:03.128Z,8.5
2024-03-09T09:45:02.503Z,9.1
2024-03-09T09:50:02.885Z,9.1
2024-03-09T09:55:02.141Z,9.0
2024-03-09T10:00:02.390Z,9.0
2024-03-09T10:05:02.749Z,10.1
2024-03-09T10:10:02.603Z,10.1
2024-03-09T10:15:03.196Z,11.6
2024-03-09T10:20:02.626Z,11.3
2024-03-09T10:25:02.833Z,11.3
2024-03-09T10:30:03.072Z,10.8
2024-03-09T10:35:02.379Z,10.8
2024-03-09T10:40:02.760Z,12.1
2024-03-09T10:45:02.966Z,12.1
2024-03-09T10:50:02.184Z,12.0
2024-03-09T10:55:02.688Z,13.1
2024-03-09T11:00:02.952Z,13.1
2024-03-09T11:05:02.418Z,12.5
2024-03-09T11:10:02.699Z,12.5
2024-03-09T11:15:03.074Z,13.3
2024-03-09T11:20:02.579Z,13.3
2024-03-09T11:25:02.918Z,13.5
2024-03-09T11:30:03.237Z,13.5
2024-03-09T11:35:12.653Z,13.5
2024-03-09T11:40:03.027Z,13.5
2024-03-09T11:45:02.126Z,12.8
2024-03-09T11:50:02.472Z,12.8
2024-03-09T11:55:02.645Z,12.8
2024-03-09T12:00:02.916Z,13.1
2024-03-09T12:05:02.241Z,13.1
2024-03-09T12:10:02.619Z,14.3
2024-03-09T12:15:02.904Z,14.3
2024-03-09T12:20:03.222Z,12.8
2024-03-09T12:25:02.473Z,15.5
2024-03-09T12:30:02.651Z,15.5
2024-03-09T12:35:02.956Z,15.5
2024-03-09T12:40:12.261Z,15.5
2024-03-09T12:45:02.555Z,15.3
2024-03-09T12:50:02.955Z,15.3
2024-03-09T12:55:02.289Z,15.6
2024-03-09T13:00:02.560Z,15.6
2024-03-09T13:05:02.846Z,14.8
2024-03-09T13:10:05.498Z,14.8
2024-03-09T13:15:03.335Z,16.7
2024-03-09T13:20:02.624Z,16.7
2024-03-09T13:25:02.928Z,16.2
2024-03-09T13:30:03.171Z,16.2
2024-03-09T13:35:02.907Z,16.7
2024-03-09T13:40:02.351Z,16.7
2024-03-09T13:45:02.757Z,14.3
2024-03-09T13:50:03.332Z,14.3
2024-03-09T13:55:02.591Z,14.0
2024-03-09T14:00:02.938Z,13.6
2024-03-09T14:05:02.593Z,13.6
2024-03-09T14:10:02.946Z,13.6
2024-03-09T14:15:02.239Z,13.6
2024-03-09T14:20:02.930Z,14.8
2024-03-09T14:25:02.216Z,14.8
2024-03-09T14:30:02.703Z,14.3
2024-03-09T14:35:03.364Z,14.3
2024-03-09T14:40:02.692Z,13.8
2024-03-09T14:45:03.054Z,13.8
2024-03-09T14:50:02.530Z,13.5
2024-03-09T14:55:02.824Z,13.5
2024-03-09T15:00:03.340Z,13.8
2024-03-09T15:05:02.769Z,13.8
2024-03-09T15:10:03.117Z,14.0
2024-03-09T15:15:02.404Z,14.0
2024-03-09T15:20:02.738Z,14.1
2024-03-09T15:25:10.192Z,14.1
2024-03-09T15:30:02.636Z,13.8
2024-03-09T15:35:02.857Z,13.8
2024-03-09T15:40:02.200Z,13.3
2024-03-09T15:45:02.588Z,13.3
2024-03-09T15:50:02.818Z,12.6
2024-03-09T15:55:03.063Z,12.6
2024-03-09T16:00:02.417Z,12.1
2024-03-09T16:05:02.873Z,12.1
2024-03-09T16:10:03.203Z,12.0
2024-03-09T16:15:02.423Z,12.0
2024-03-09T16:20:02.730Z,11.8
2024-03-09T16:25:03.120Z,11.8
2024-03-09T16:30:02.508Z,11.6
2024-03-09T16:35:02.883Z,11.6
2024-03-09T16:40:02.262Z,11.6
2024-03-09T16:45:02.829Z,11.6
2024-03-09T16:50:03.080Z,11.3
2024-03-09T16:55:02.388Z,11.3
2024-03-09T17:00:02.617Z,11.1
2024-03-09T17:05:03.033Z,11.1
2024-03-09T17:10:02.335Z,11.0
2024-03-09T17:15:02.582Z,11.0
2024-03-09T17:20:02.947Z,10.8
2024-03-09T17:25:02.307Z,10.8
2024-03-09T17:30:02.564Z,10.6
2024-03-09T17:35:02.837Z,10.6
2024-03-09T17:40:03.108Z,10.5
2024-03-09T17:45:02.430Z,10.5
2024-03-09T17:50:02.651Z,10.1
2024-03-09T17:55:06.590Z,10.1
2024-03-09T18:00:02.787Z,10.1
2024-03-09T18:05:03.303Z,10.1
2024-03-09T18:10:02.614Z,10.1
2024-03-09T18:15:03.046Z,10.0
2024-03-09T18:20:02.443Z,9.8
2024-03-09T18:25:02.939Z,9.8
2024-03-09T18:30:02.249Z,10.0
2024-03-09T18:35:02.504Z,10.0
2024-03-09T18:40:02.977Z,9.6
2024-03-09T18:45:02.200Z,9.6
2024-03-09T18:50:02.780Z,9.5
2024-03-09T18:55:03.082Z,9.5
2024-03-09T19:00:05.386Z,9.5
2024-03-09T19:05:02.464Z,9.5
2024-03-09T19:10:02.837Z,9.3
2024-03-09T19:15:03.132Z,9.3
2024-03-09T19:20:02.381Z,9.1
2024-03-09T19:25:02.732Z,9.1
2024-03-09T19:30:03.141Z,9.0
2024-03-09T19:35:02.595Z,9.0
2024-03-09T19:40:02.754Z,8.8
2024-03-09T19:45:02.997Z,8.8
2024-03-09T19:50:05.699Z,8.5
2024-03-09T19:55:02.859Z,8.5
2024-03-09T20:00:03.115Z,8.5
2024-03-09T20:05:02.334Z,8.5
2024-03-09T20:10:02.572Z,8.5
2024-03-09T20:15:02.886Z,8.5
2024-03-09T20:20:02.221Z,8.5
2024-03-09T20:25:02.447Z,8.5
2024-03-09T20:30:02.588Z,8.5
2024-03-09T20:35:02.909Z,8.5
2024-03-09T20:40:02.217Z,8.3
2024-03-09T20:45:02.648Z,8.3
2024-03-09T20:50:02.979Z,8.3
2024-03-09T20:55:02.349Z,8.3
2024-03-09T21:00:02.681Z,8.3
2024-03-09T21:05:02.954Z,8.3
2024-03-09T21:10:02.361Z,8.1
2024-03-09T21:15:02.581Z,8.1
2024-03-09T21:20:02.922Z,8.0
2024-03-09T21:25:02.220Z,8.0
2024-03-09T21:30:02.494Z,8.1
2024-03-09T21:35:02.808Z,8.1
2024-03-09T21:40:03.126Z,8.3
2024-03-09T21:45:02.504Z,8.3
2024-03-09T21:50:03.004Z,8.3
2024-03-09T21:55:02.368Z,8.3
2024-03-09T22:00:02.710Z,8.5
2024-03-09T22:05:02.955Z,8.5
2024-03-09T22:10:02.238Z,8.3
2024-03-09T22:15:02.508Z,8.3
2024-03-09T22:20:02.884Z,8.3
2024-03-09T22:25:03.172Z,8.3
2024-03-09T22:30:09.326Z,8.3
2024-03-09T22:35:03.078Z,8.3
2024-03-09T22:40:02.588Z,8.3
2024-03-09T22:45:02.937Z,8.3
2024-03-09T22:50:02.367Z,8.3
2024-03-09T22:55:02.815Z,8.3
2024-03-09T23:00:03.146Z,8.1
2024-03-09T23:05:02.494Z,8.1
2024-03-09T23:10:02.950Z,8.1
2024-03-09T23:15:02.185Z,8.1
2024-03-09T23:20:03.119Z,8.1
2024-03-09T23:25:02.379Z,8.1
2024-03-09T23:30:02.612Z,8.1
2024-03-09T23:35:03.037Z,8.1
2024-03-09T23:40:02.375Z,8.0
2024-03-09T23:45:02.729Z,8.0
2024-03-09T23:50:03.049Z,7.9
2024-03-09T23:55:04.591Z,7.9
